Aeroporto :
LOGIN :

Iscrizione | Disclaimer

   EN    FR    IT 

 










Sommario :    VFR   VFR Marginale   IFR   IFR Intensivo   IFR Molto Intensivo
Visibilità : 
Base nubi : 
>= 8 km
>= 3000ft
5 / 8 km
1000 / 3000 ft
1500m / 5 km
500 / 1000 ft
800 / 1500m
200 / 500 ft
< 800m
< 200 ft
Simboli :   Temporali  Nebbia  Neve Forte  Precipitazioni Forti  Vento > 20 kt
SIGMETs :   Varie  Temporali  Ghiacco  Turbolenza  Onda orograficha  Ceneri Vulcaniche






- Altitudine del aeroporto : 1202 ft
- Codice IATA : IGS


ETSI - Ingolstadt

ULTIMO METAR :
  • 050720Z 31009KT 9999 BKN018 13/09 Q1000 WHT WHT BECMG BLU

METARs OBSOLETI :
  • 050620Z 29010KT 9999 FEW015 SCT060 BKN100 13/08 Q1000 BLU BLU
  • 050520Z 30008KT 9999 SCT015 SCT020 OVC060 12/09 Q0999 BLU BLU

TAF TAF ETSI
Valido dal 05 a 08 ore il 05 a 17 ore UTC


050716Z 0508/0517 27012KT 9999 NSW SCT025 BKN060
PROB30 0511/0517 28015G25KT 5000 SHRA BKN020TCU BKN050



MetMap, La meteo Aeronautica in un colpo d'occhio ! - Copyright ORBIFLY Dicembre 2007 - Disclaimer

ORBIFLY MET'MAP TEAM :

Programmazione e sviluppo : Alexandra Zaïnal
Concezione : Baudouin d'Aumeries
Aiuto per la programmazione : Marc-Olivier Méhu
Supporto tecnico e logistico : Manuel Goepfert
Aiuto per la traduzione : Arnaldo La Scala

Contatto : metmap@orbifly.com




FONTI E CREDITI :

   NOAA